sensor_id;sensor_type;location;lat;lon;timestamp;pressure;altitude;pressure_sealevel;temperature;humidity
42591;BME280;28218;53.342;-6.216;2023-08-12T00:01:22;100652.56;;;19.47;100.00
42591;BME280;28218;53.342;-6.216;2023-08-12T00:03:51;100661.88;;;19.45;100.00
42591;BME280;28218;53.342;-6.216;2023-08-12T00:06:21;100657.72;;;19.49;100.00
42591;BME280;28218;53.342;-6.216;2023-08-12T00:08:51;100640.88;;;19.48;100.00
42591;BME280;28218;53.342;-6.216;2023-08-12T00:11:19;100639.81;;;19.49;100.00
42591;BME280;28218;53.342;-6.216;2023-08-12T00:13:47;100642.25;;;19.51;100.00
42591;BME280;28218;53.342;-6.216;2023-08-12T00:16:15;100640.38;;;19.51;100.00
42591;BME280;28218;53.342;-6.216;2023-08-12T00:18:44;100622.72;;;19.50;100.00
42591;BME280;28218;53.342;-6.216;2023-08-12T00:21:12;100625.84;;;19.47;100.00
42591;BME280;28218;53.342;-6.216;2023-08-12T00:23:42;100631.81;;;19.49;100.00
42591;BME280;28218;53.342;-6.216;2023-08-12T00:26:11;100621.09;;;19.49;100.00
42591;BME280;28218;53.342;-6.216;2023-08-12T00:28:39;100614.72;;;19.50;100.00
42591;BME280;28218;53.342;-6.216;2023-08-12T00:31:07;100608.19;;;19.46;100.00
42591;BME280;28218;53.342;-6.216;2023-08-12T00:33:35;100610.28;;;19.44;100.00
42591;BME280;28218;53.342;-6.216;2023-08-12T00:36:04;100599.25;;;19.40;100.00
42591;BME280;28218;53.342;-6.216;2023-08-12T00:38:32;100604.22;;;19.37;100.00
42591;BME280;28218;53.342;-6.216;2023-08-12T00:41:03;100595.28;;;19.31;100.00
42591;BME280;28218;53.342;-6.216;2023-08-12T00:43:31;100587.94;;;19.27;100.00
42591;BME280;28218;53.342;-6.216;2023-08-12T00:45:59;100588.50;;;19.29;100.00
42591;BME280;28218;53.342;-6.216;2023-08-12T00:48:28;100587.72;;;19.28;100.00
42591;BME280;28218;53.342;-6.216;2023-08-12T00:50:56;100574.47;;;19.22;100.00
42591;BME280;28218;53.342;-6.216;2023-08-12T00:53:24;100576.56;;;19.20;100.00
42591;BME280;28218;53.342;-6.216;2023-08-12T00:55:52;100582.72;;;19.20;100.00
42591;BME280;28218;53.342;-6.216;2023-08-12T00:58:22;100585.72;;;19.24;100.00
42591;BME280;28218;53.342;-6.216;2023-08-12T01:00:50;100569.00;;;19.17;100.00
42591;BME280;28218;53.342;-6.216;2023-08-12T01:03:19;100574.34;;;19.17;100.00
42591;BME280;28218;53.342;-6.216;2023-08-12T01:05:48;100574.66;;;19.08;100.00
42591;BME280;28218;53.342;-6.216;2023-08-12T01:08:16;100566.19;;;19.11;100.00
42591;BME280;28218;53.342;-6.216;2023-08-12T01:10:48;100556.09;;;19.13;100.00
42591;BME280;28218;53.342;-6.216;2023-08-12T01:13:26;100565.28;;;19.18;100.00
42591;BME280;28218;53.342;-6.216;2023-08-12T01:15:58;100547.03;;;19.14;100.00
42591;BME280;28218;53.342;-6.216;2023-08-12T01:18:27;100547.03;;;19.14;100.00
42591;BME280;28218;53.342;-6.216;2023-08-12T01:20:56;100552.03;;;19.11;100.00
42591;BME280;28218;53.342;-6.216;2023-08-12T01:23:25;100558.19;;;19.11;100.00
42591;BME280;28218;53.342;-6.216;2023-08-12T01:25:53;100550.03;;;19.06;100.00
42591;BME280;28218;53.342;-6.216;2023-08-12T01:28:22;100527.03;;;19.05;100.00
42591;BME280;28218;53.342;-6.216;2023-08-12T01:30:59;100535.66;;;19.07;100.00
42591;BME280;28218;53.342;-6.216;2023-08-12T01:33:35;100526.00;;;19.06;100.00
42591;BME280;28218;53.342;-6.216;2023-08-12T01:36:12;100526.00;;;19.06;100.00
42591;BME280;28218;53.342;-6.216;2023-08-12T01:38:44;100529.56;;;19.00;100.00
42591;BME280;28218;53.342;-6.216;2023-08-12T01:41:14;100513.56;;;19.00;100.00
42591;BME280;28218;53.342;-6.216;2023-08-12T01:43:43;100508.22;;;19.00;100.00
42591;BME280;28218;53.342;-6.216;2023-08-12T01:46:12;100503.72;;;19.01;100.00
42591;BME280;28218;53.342;-6.216;2023-08-12T01:48:40;100503.00;;;19.05;100.00
42591;BME280;28218;53.342;-6.216;2023-08-12T01:51:08;100498.94;;;19.03;100.00
42591;BME280;28218;53.342;-6.216;2023-08-12T01:53:36;100498.47;;;18.94;100.00
42591;BME280;28218;53.342;-6.216;2023-08-12T01:56:06;100494.66;;;19.02;100.00
42591;BME280;28218;53.342;-6.216;2023-08-12T01:58:34;100489.31;;;19.02;100.00
42591;BME280;28218;53.342;-6.216;2023-08-12T02:01:02;100489.06;;;19.03;100.00
42591;BME280;28218;53.342;-6.216;2023-08-12T02:03:30;100486.78;;;19.07;100.00
42591;BME280;28218;53.342;-6.216;2023-08-12T02:05:59;100487.44;;;19.02;100.00
42591;BME280;28218;53.342;-6.216;2023-08-12T02:08:27;100481.88;;;19.04;100.00
42591;BME280;28218;53.342;-6.216;2023-08-12T02:10:55;100485.03;;;19.01;100.00
42591;BME280;28218;53.342;-6.216;2023-08-12T02:13:25;100472.94;;;18.98;100.00
42591;BME280;28218;53.342;-6.216;2023-08-12T02:15:53;100477.00;;;19.01;100.00
42591;BME280;28218;53.342;-6.216;2023-08-12T02:18:21;100477.81;;;19.01;100.00
42591;BME280;28218;53.342;-6.216;2023-08-12T02:20:49;100468.75;;;19.02;100.00
42591;BME280;28218;53.342;-6.216;2023-08-12T02:23:18;100479.19;;;19.04;100.00
42591;BME280;28218;53.342;-6.216;2023-08-12T02:25:46;100466.66;;;19.04;100.00
42591;BME280;28218;53.342;-6.216;2023-08-12T02:28:15;100464.34;;;19.08;100.00
42591;BME280;28218;53.342;-6.216;2023-08-12T02:30:44;100463.41;;;19.02;100.00
42591;BME280;28218;53.342;-6.216;2023-08-12T02:33:12;100459.13;;;19.01;100.00
42591;BME280;28218;53.342;-6.216;2023-08-12T02:35:40;100455.28;;;18.97;100.00
42591;BME280;28218;53.342;-6.216;2023-08-12T02:38:09;100436.81;;;18.96;100.00
42591;BME280;28218;53.342;-6.216;2023-08-12T02:40:37;100449.34;;;18.95;100.00
42591;BME280;28218;53.342;-6.216;2023-08-12T02:43:06;100457.25;;;18.90;100.00
42591;BME280;28218;53.342;-6.216;2023-08-12T02:45:34;100456.19;;;18.91;100.00
42591;BME280;28218;53.342;-6.216;2023-08-12T02:48:05;100448.19;;;18.91;100.00
42591;BME280;28218;53.342;-6.216;2023-08-12T02:50:33;100447.59;;;18.89;100.00
42591;BME280;28218;53.342;-6.216;2023-08-12T02:53:01;100447.72;;;18.94;100.00
42591;BME280;28218;53.342;-6.216;2023-08-12T02:55:29;100441.47;;;18.88;100.00
42591;BME280;28218;53.342;-6.216;2023-08-12T02:57:58;100429.03;;;18.94;100.00
42591;BME280;28218;53.342;-6.216;2023-08-12T03:00:27;100416.75;;;18.93;100.00
42591;BME280;28218;53.342;-6.216;2023-08-12T03:02:54;100418.34;;;18.94;100.00
42591;BME280;28218;53.342;-6.216;2023-08-12T03:05:24;100423.25;;;18.97;100.00
42591;BME280;28218;53.342;-6.216;2023-08-12T03:07:52;100414.63;;;18.95;100.00
42591;BME280;28218;53.342;-6.216;2023-08-12T03:10:21;100426.72;;;18.98;100.00
42591;BME280;28218;53.342;-6.216;2023-08-12T03:12:49;100411.28;;;19.00;100.00
42591;BME280;28218;53.342;-6.216;2023-08-12T03:15:17;100412.09;;;19.00;100.00
42591;BME280;28218;53.342;-6.216;2023-08-12T03:17:45;100418.47;;;18.99;100.00
42591;BME280;28218;53.342;-6.216;2023-08-12T03:20:13;100417.53;;;19.05;100.00
42591;BME280;28218;53.342;-6.216;2023-08-12T03:22:43;100412.09;;;19.00;100.00
42591;BME280;28218;53.342;-6.216;2023-08-12T03:25:11;100413.75;;;19.01;100.00
42591;BME280;28218;53.342;-6.216;2023-08-12T03:27:41;100400.97;;;19.03;100.00
42591;BME280;28218;53.342;-6.216;2023-08-12T03:30:10;100396.19;;;19.05;100.00
42591;BME280;28218;53.342;-6.216;2023-08-12T03:32:39;100403.38;;;19.05;100.00
42591;BME280;28218;53.342;-6.216;2023-08-12T03:35:08;100398.66;;;19.07;100.00
42591;BME280;28218;53.342;-6.216;2023-08-12T03:37:36;100384.47;;;19.06;100.00
42591;BME280;28218;53.342;-6.216;2023-08-12T03:40:07;100385.75;;;19.04;100.00
42591;BME280;28218;53.342;-6.216;2023-08-12T03:42:36;100388.75;;;18.96;100.00
42591;BME280;28218;53.342;-6.216;2023-08-12T03:45:05;100379.94;;;18.95;100.00
42591;BME280;28218;53.342;-6.216;2023-08-12T03:47:34;100384.09;;;18.91;100.00
42591;BME280;28218;53.342;-6.216;2023-08-12T03:50:02;100373.31;;;18.86;100.00
42591;BME280;28218;53.342;-6.216;2023-08-12T03:52:30;100377.03;;;18.85;100.00
42591;BME280;28218;53.342;-6.216;2023-08-12T03:54:58;100378.19;;;18.89;100.00
42591;BME280;28218;53.342;-6.216;2023-08-12T03:57:28;100376.69;;;18.93;100.00
42591;BME280;28218;53.342;-6.216;2023-08-12T03:59:58;100376.69;;;18.93;100.00
42591;BME280;28218;53.342;-6.216;2023-08-12T04:02:26;100376.09;;;18.91;100.00
42591;BME280;28218;53.342;-6.216;2023-08-12T04:04:54;100374.28;;;18.92;100.00
42591;BME280;28218;53.342;-6.216;2023-08-12T04:07:23;100374.47;;;18.90;100.00
42591;BME280;28218;53.342;-6.216;2023-08-12T04:09:51;100371.69;;;18.85;100.00
42591;BME280;28218;53.342;-6.216;2023-08-12T04:12:19;100370.53;;;18.93;100.00
42591;BME280;28218;53.342;-6.216;2023-08-12T04:14:49;100362.28;;;18.94;100.00
42591;BME280;28218;53.342;-6.216;2023-08-12T04:17:17;100364.28;;;18.99;100.00
42591;BME280;28218;53.342;-6.216;2023-08-12T04:19:45;100367.75;;;18.99;100.00
42591;BME280;28218;53.342;-6.216;2023-08-12T04:22:14;100357.06;;;18.99;100.00
42591;BME280;28218;53.342;-6.216;2023-08-12T04:24:43;100367.75;;;18.99;100.00
42591;BME280;28218;53.342;-6.216;2023-08-12T04:27:11;100360.34;;;19.01;100.00
42591;BME280;28218;53.342;-6.216;2023-08-12T04:29:40;100357.06;;;18.99;100.00
42591;BME280;28218;53.342;-6.216;2023-08-12T04:32:10;100351.97;;;18.98;100.00
42591;BME280;28218;53.342;-6.216;2023-08-12T04:34:38;100372.53;;;18.97;100.00
42591;BME280;28218;53.342;-6.216;2023-08-12T04:37:06;100364.16;;;18.94;100.00
42591;BME280;28218;53.342;-6.216;2023-08-12T04:39:34;100360.69;;;18.93;100.00
42591;BME280;28218;53.342;-6.216;2023-08-12T04:42:03;100364.72;;;18.96;100.00
42591;BME280;28218;53.342;-6.216;2023-08-12T04:44:31;100357.56;;;18.96;100.00
42591;BME280;28218;53.342;-6.216;2023-08-12T04:46:59;100357.31;;;18.98;100.00
42591;BME280;28218;53.342;-6.216;2023-08-12T04:49:29;100350.34;;;18.97;100.00
42591;BME280;28218;53.342;-6.216;2023-08-12T04:51:57;100350.00;;;18.93;100.00
42591;BME280;28218;53.342;-6.216;2023-08-12T04:54:25;100348.25;;;18.87;100.00
42591;BME280;28218;53.342;-6.216;2023-08-12T04:56:53;100338.41;;;18.87;100.00
42591;BME280;28218;53.342;-6.216;2023-08-12T04:59:23;100340.59;;;18.90;100.00
42591;BME280;28218;53.342;-6.216;2023-08-12T05:01:51;100340.59;;;18.90;100.00
42591;BME280;28218;53.342;-6.216;2023-08-12T05:04:31;100344.41;;;18.95;100.00
42591;BME280;28218;53.342;-6.216;2023-08-12T05:07:00;100342.81;;;18.94;100.00
42591;BME280;28218;53.342;-6.216;2023-08-12T05:09:28;100337.69;;;18.92;100.00
42591;BME280;28218;53.342;-6.216;2023-08-12T05:11:56;100342.00;;;18.93;100.00
42591;BME280;28218;53.342;-6.216;2023-08-12T05:14:25;100343.59;;;18.94;100.00
42591;BME280;28218;53.342;-6.216;2023-08-12T05:16:53;100340.69;;;18.96;100.00
42591;BME280;28218;53.342;-6.216;2023-08-12T05:19:21;100339.44;;;18.98;100.00
42591;BME280;28218;53.342;-6.216;2023-08-12T05:21:51;100347.69;;;18.97;100.00
42591;BME280;28218;53.342;-6.216;2023-08-12T05:24:19;100347.09;;;18.95;100.00
42591;BME280;28218;53.342;-6.216;2023-08-12T05:26:47;100351.97;;;18.98;100.00
42591;BME280;28218;53.342;-6.216;2023-08-12T05:29:15;100348.25;;;18.99;100.00
42591;BME280;28218;53.342;-6.216;2023-08-12T05:31:43;100351.16;;;18.97;100.00
42591;BME280;28218;53.342;-6.216;2023-08-12T05:34:12;100359.19;;;18.97;100.00
42591;BME280;28218;53.342;-6.216;2023-08-12T05:36:40;100361.25;;;18.95;100.00
42591;BME280;28218;53.342;-6.216;2023-08-12T05:39:10;100355.91;;;18.95;100.00
42591;BME280;28218;53.342;-6.216;2023-08-12T05:41:38;100351.06;;;18.92;100.00
42591;BME280;28218;53.342;-6.216;2023-08-12T05:44:06;100346.72;;;18.91;100.00
42591;BME280;28218;53.342;-6.216;2023-08-12T05:46:34;100356.38;;;18.92;100.00
42591;BME280;28218;53.342;-6.216;2023-08-12T05:49:03;100350.00;;;18.93;100.00
42591;BME280;28218;53.342;-6.216;2023-08-12T05:51:31;100348.72;;;18.96;100.00
42591;BME280;28218;53.342;-6.216;2023-08-12T05:53:59;100349.88;;;18.88;100.00
42591;BME280;28218;53.342;-6.216;2023-08-12T05:56:29;100359.75;;;18.87;100.00
42591;BME280;28218;53.342;-6.216;2023-08-12T05:58:57;100354.16;;;18.89;100.00
42591;BME280;28218;53.342;-6.216;2023-08-12T06:01:25;100356.84;;;18.89;100.00
42591;BME280;28218;53.342;-6.216;2023-08-12T06:03:53;100354.41;;;18.87;100.00
42591;BME280;28218;53.342;-6.216;2023-08-12T06:06:22;100353.94;;;18.90;100.00
42591;BME280;28218;53.342;-6.216;2023-08-12T06:08:50;100354.75;;;18.91;100.00
42591;BME280;28218;53.342;-6.216;2023-08-12T06:11:18;100355.09;;;18.95;100.00
42591;BME280;28218;53.342;-6.216;2023-08-12T06:13:48;100356.25;;;18.99;100.00
42591;BME280;28218;53.342;-6.216;2023-08-12T06:16:16;100356.63;;;19.02;100.00
42591;BME280;28218;53.342;-6.216;2023-08-12T06:18:44;100360.22;;;19.08;100.00
42591;BME280;28218;53.342;-6.216;2023-08-12T06:21:13;100363.69;;;19.08;100.00
42591;BME280;28218;53.342;-6.216;2023-08-12T06:23:41;100361.47;;;19.05;100.00
42591;BME280;28218;53.342;-6.216;2023-08-12T06:26:09;100351.16;;;19.09;100.00
42591;BME280;28218;53.342;-6.216;2023-08-12T06:28:37;100361.38;;;19.12;100.00
42591;BME280;28218;53.342;-6.216;2023-08-12T06:31:07;100355.09;;;19.18;100.00
42591;BME280;28218;53.342;-6.216;2023-08-12T06:33:35;100352.91;;;19.15;100.00
42591;BME280;28218;53.342;-6.216;2023-08-12T06:36:04;100351.97;;;19.21;100.00
42591;BME280;28218;53.342;-6.216;2023-08-12T06:38:32;100346.72;;;19.14;100.00
42591;BME280;28218;53.342;-6.216;2023-08-12T06:41:00;100338.50;;;19.16;100.00
42591;BME280;28218;53.342;-6.216;2023-08-12T06:43:29;100343.03;;;19.15;100.00
42591;BME280;28218;53.342;-6.216;2023-08-12T06:45:57;100358.34;;;19.20;100.00
42591;BME280;28218;53.342;-6.216;2023-08-12T06:48:27;100349.16;;;19.28;100.00
42591;BME280;28218;53.342;-6.216;2023-08-12T06:50:55;100350.78;;;19.29;100.00
42591;BME280;28218;53.342;-6.216;2023-08-12T06:53:24;100359.50;;;19.36;100.00
42591;BME280;28218;53.342;-6.216;2023-08-12T06:55:53;100364.59;;;19.37;100.00
42591;BME280;28218;53.342;-6.216;2023-08-12T06:58:21;100363.31;;;19.40;100.00
42591;BME280;28218;53.342;-6.216;2023-08-12T07:00:49;100369.56;;;19.46;100.00
42591;BME280;28218;53.342;-6.216;2023-08-12T07:03:19;100360.41;;;19.41;100.00
42591;BME280;28218;53.342;-6.216;2023-08-12T07:05:49;100365.19;;;19.39;100.00
42591;BME280;28218;53.342;-6.216;2023-08-12T07:08:17;100362.03;;;19.42;100.00
42591;BME280;28218;53.342;-6.216;2023-08-12T07:10:45;100367.16;;;19.44;100.00
42591;BME280;28218;53.342;-6.216;2023-08-12T07:13:13;100363.53;;;19.50;100.00
42591;BME280;28218;53.342;-6.216;2023-08-12T07:15:41;100363.06;;;19.53;100.00
42591;BME280;28218;53.342;-6.216;2023-08-12T07:18:09;100368.16;;;19.66;100.00
42591;BME280;28218;53.342;-6.216;2023-08-12T07:20:38;100380.81;;;19.71;100.00
42591;BME280;28218;53.342;-6.216;2023-08-12T07:23:07;100379.72;;;19.96;100.00
42591;BME280;28218;53.342;-6.216;2023-08-12T07:25:35;100373.47;;;20.19;100.00
42591;BME280;28218;53.342;-6.216;2023-08-12T07:28:04;100366.00;;;20.49;100.00
42591;BME280;28218;53.342;-6.216;2023-08-12T07:30:34;100371.44;;;20.71;100.00
42591;BME280;28218;53.342;-6.216;2023-08-12T07:33:04;100364.19;;;20.88;100.00
42591;BME280;28218;53.342;-6.216;2023-08-12T07:35:32;100370.09;;;21.07;100.00
42591;BME280;28218;53.342;-6.216;2023-08-12T07:38:00;100373.91;;;21.11;100.00
42591;BME280;28218;53.342;-6.216;2023-08-12T07:40:30;100387.38;;;21.16;100.00
42591;BME280;28218;53.342;-6.216;2023-08-12T07:42:58;100388.19;;;21.17;100.00
42591;BME280;28218;53.342;-6.216;2023-08-12T07:45:26;100401.22;;;21.08;100.00
42591;BME280;28218;53.342;-6.216;2023-08-12T07:47:55;100401.03;;;20.98;100.00
42591;BME280;28218;53.342;-6.216;2023-08-12T07:50:23;100406.88;;;20.78;100.00
42591;BME280;28218;53.342;-6.216;2023-08-12T07:52:51;100406.00;;;20.73;100.00
42591;BME280;28218;53.342;-6.216;2023-08-12T07:55:19;100400.56;;;20.67;100.00
42591;BME280;28218;53.342;-6.216;2023-08-12T07:57:52;100403.72;;;20.64;100.00
42591;BME280;28218;53.342;-6.216;2023-08-12T08:00:20;100399.84;;;20.72;100.00
42591;BME280;28218;53.342;-6.216;2023-08-12T08:02:48;100405.75;;;20.74;100.00
42591;BME280;28218;53.342;-6.216;2023-08-12T08:05:17;100411.91;;;20.75;100.00
42591;BME280;28218;53.342;-6.216;2023-08-12T08:07:45;100410.88;;;20.76;100.00
42591;BME280;28218;53.342;-6.216;2023-08-12T08:10:13;100413.38;;;20.82;100.00
42591;BME280;28218;53.342;-6.216;2023-08-12T08:12:41;100406.16;;;20.83;100.00
42591;BME280;28218;53.342;-6.216;2023-08-12T08:15:11;100401.22;;;20.91;100.00
42591;BME280;28218;53.342;-6.216;2023-08-12T08:17:39;100414.75;;;21.02;100.00
42591;BME280;28218;53.342;-6.216;2023-08-12T08:20:09;100414.34;;;21.10;100.00
42591;BME280;28218;53.342;-6.216;2023-08-12T08:22:37;100411.94;;;21.08;100.00
42591;BME280;28218;53.342;-6.216;2023-08-12T08:25:07;100428.00;;;21.08;100.00
42591;BME280;28218;53.342;-6.216;2023-08-12T08:27:35;100437.72;;;21.14;100.00
42591;BME280;28218;53.342;-6.216;2023-08-12T08:30:04;100433.66;;;21.12;100.00
42591;BME280;28218;53.342;-6.216;2023-08-12T08:32:33;100428.97;;;21.02;100.00
42591;BME280;28218;53.342;-6.216;2023-08-12T08:35:02;100428.09;;;20.80;100.00
42591;BME280;28218;53.342;-6.216;2023-08-12T08:37:30;100433.84;;;20.72;100.00
42591;BME280;28218;53.342;-6.216;2023-08-12T08:39:59;100425.88;;;20.77;100.00
42591;BME280;28218;53.342;-6.216;2023-08-12T08:42:27;100429.31;;;20.89;100.00
42591;BME280;28218;53.342;-6.216;2023-08-12T08:44:57;100424.75;;;20.73;100.00
42591;BME280;28218;53.342;-6.216;2023-08-12T08:47:28;100423.47;;;20.75;100.00
42591;BME280;28218;53.342;-6.216;2023-08-12T08:49:58;100434.66;;;20.89;100.00
42591;BME280;28218;53.342;-6.216;2023-08-12T08:52:27;100425.53;;;20.73;100.00
42591;BME280;28218;53.342;-6.216;2023-08-12T08:54:56;100436.13;;;20.80;100.00
42591;BME280;28218;53.342;-6.216;2023-08-12T08:57:30;100434.97;;;20.92;100.00
42591;BME280;28218;53.342;-6.216;2023-08-12T09:00:14;100428.72;;;21.04;100.00
42591;BME280;28218;53.342;-6.216;2023-08-12T09:02:46;100423.19;;;21.10;100.00
42591;BME280;28218;53.342;-6.216;2023-08-12T09:05:16;100421.00;;;21.07;100.00
42591;BME280;28218;53.342;-6.216;2023-08-12T09:07:45;100432.56;;;21.08;100.00
42591;BME280;28218;53.342;-6.216;2023-08-12T09:10:14;100430.75;;;21.13;100.00
42591;BME280;28218;53.342;-6.216;2023-08-12T09:12:42;100431.91;;;21.17;100.00
42591;BME280;28218;53.342;-6.216;2023-08-12T09:15:11;100409.53;;;21.29;100.00
42591;BME280;28218;53.342;-6.216;2023-08-12T09:17:39;100427.59;;;21.33;100.00
42591;BME280;28218;53.342;-6.216;2023-08-12T09:20:07;100433.34;;;21.42;100.00
42591;BME280;28218;53.342;-6.216;2023-08-12T09:22:41;100440.97;;;21.50;100.00
42591;BME280;28218;53.342;-6.216;2023-08-12T09:25:10;100443.03;;;21.65;100.00
42591;BME280;28218;53.342;-6.216;2023-08-12T09:27:38;100445.91;;;21.80;100.00
42591;BME280;28218;53.342;-6.216;2023-08-12T09:30:07;100432.13;;;21.93;100.00
42591;BME280;28218;53.342;-6.216;2023-08-12T09:32:38;100444.53;;;22.00;100.00
42591;BME280;28218;53.342;-6.216;2023-08-12T09:35:15;100451.19;;;22.14;100.00
42591;BME280;28218;53.342;-6.216;2023-08-12T09:37:46;100450.84;;;22.32;100.00
42591;BME280;28218;53.342;-6.216;2023-08-12T09:40:14;100449.94;;;22.49;100.00
42591;BME280;28218;53.342;-6.216;2023-08-12T09:42:45;100455.13;;;22.55;100.00
42591;BME280;28218;53.342;-6.216;2023-08-12T09:45:14;100465.22;;;22.48;100.00
42591;BME280;28218;53.342;-6.216;2023-08-12T09:47:43;100466.31;;;22.47;100.00
42591;BME280;28218;53.342;-6.216;2023-08-12T09:50:11;100476.84;;;22.54;100.00
42591;BME280;28218;53.342;-6.216;2023-08-12T09:52:40;100481.38;;;22.53;100.00
42591;BME280;28218;53.342;-6.216;2023-08-12T09:55:11;100490.50;;;22.52;100.00
42591;BME280;28218;53.342;-6.216;2023-08-12T09:57:43;100480.78;;;22.46;100.00
42591;BME280;28218;53.342;-6.216;2023-08-12T10:00:13;100483.00;;;22.27;100.00
42591;BME280;28218;53.342;-6.216;2023-08-12T10:02:44;100495.84;;;22.25;100.00
42591;BME280;28218;53.342;-6.216;2023-08-12T10:05:17;100503.78;;;22.15;100.00
42591;BME280;28218;53.342;-6.216;2023-08-12T10:07:47;100508.97;;;22.22;100.00
42591;BME280;28218;53.342;-6.216;2023-08-12T10:10:17;100501.84;;;22.32;100.00
42591;BME280;28218;53.342;-6.216;2023-08-12T10:12:46;100505.81;;;22.52;100.00
42591;BME280;28218;53.342;-6.216;2023-08-12T10:15:15;100492.03;;;22.70;100.00
42591;BME280;28218;53.342;-6.216;2023-08-12T10:17:44;100494.56;;;22.82;100.00
42591;BME280;28218;53.342;-6.216;2023-08-12T10:20:19;100490.13;;;22.92;100.00
42591;BME280;28218;53.342;-6.216;2023-08-12T10:22:49;100500.16;;;23.02;100.00
42591;BME280;28218;53.342;-6.216;2023-08-12T10:25:19;100511.25;;;23.11;100.00
42591;BME280;28218;53.342;-6.216;2023-08-12T10:27:49;100513.75;;;23.23;100.00
42591;BME280;28218;53.342;-6.216;2023-08-12T10:30:20;100496.41;;;23.40;100.00
42591;BME280;28218;53.342;-6.216;2023-08-12T10:32:49;100505.22;;;23.31;100.00
42591;BME280;28218;53.342;-6.216;2023-08-12T10:35:17;100520.22;;;23.21;100.00
42591;BME280;28218;53.342;-6.216;2023-08-12T10:37:48;100518.72;;;23.04;100.00
42591;BME280;28218;53.342;-6.216;2023-08-12T10:40:22;100516.94;;;22.87;100.00
42591;BME280;28218;53.342;-6.216;2023-08-12T10:42:51;100515.28;;;22.86;100.00
42591;BME280;28218;53.342;-6.216;2023-08-12T10:45:19;100530.59;;;22.86;100.00
42591;BME280;28218;53.342;-6.216;2023-08-12T10:50:37;100530.22;;;22.77;100.00
42591;BME280;28218;53.342;-6.216;2023-08-12T10:53:21;100540.88;;;22.67;100.00
42591;BME280;28218;53.342;-6.216;2023-08-12T10:55:54;100536.31;;;22.67;100.00
42591;BME280;28218;53.342;-6.216;2023-08-12T10:58:27;100537.34;;;22.61;100.00
42591;BME280;28218;53.342;-6.216;2023-08-12T11:00:57;100543.19;;;22.58;100.00
42591;BME280;28218;53.342;-6.216;2023-08-12T11:03:26;100549.34;;;22.54;100.00
42591;BME280;28218;53.342;-6.216;2023-08-12T11:06:02;100550.00;;;22.44;100.00
42591;BME280;28218;53.342;-6.216;2023-08-12T11:08:30;100549.34;;;22.32;100.00
42591;BME280;28218;53.342;-6.216;2023-08-12T11:11:01;100554.59;;;22.22;100.00
42591;BME280;28218;53.342;-6.216;2023-08-12T11:13:30;100538.81;;;22.08;100.00
42591;BME280;28218;53.342;-6.216;2023-08-12T11:16:09;100562.03;;;21.98;100.00
42591;BME280;28218;53.342;-6.216;2023-08-12T11:18:37;100553.72;;;21.99;100.00
42591;BME280;28218;53.342;-6.216;2023-08-12T11:21:07;100561.72;;;21.94;100.00
42591;BME280;28218;53.342;-6.216;2023-08-12T11:23:36;100552.94;;;21.82;100.00
42591;BME280;28218;53.342;-6.216;2023-08-12T11:26:07;100551.72;;;21.73;100.00
42591;BME280;28218;53.342;-6.216;2023-08-12T11:28:37;100550.22;;;21.60;100.00
42591;BME280;28218;53.342;-6.216;2023-08-12T11:31:05;100549.38;;;21.59;100.00
42591;BME280;28218;53.342;-6.216;2023-08-12T11:33:33;100548.34;;;21.60;100.00
42591;BME280;28218;53.342;-6.216;2023-08-12T11:36:02;100548.16;;;21.67;100.00
42591;BME280;28218;53.342;-6.216;2023-08-12T11:38:31;100544.34;;;21.80;100.00
42591;BME280;28218;53.342;-6.216;2023-08-12T11:41:00;100543.09;;;21.87;100.00
42591;BME280;28218;53.342;-6.216;2023-08-12T11:43:32;100545.56;;;22.11;100.00
42591;BME280;28218;53.342;-6.216;2023-08-12T11:46:00;100550.84;;;22.23;100.00
42591;BME280;28218;53.342;-6.216;2023-08-12T11:48:28;100544.25;;;22.30;100.00
42591;BME280;28218;53.342;-6.216;2023-08-12T11:50:57;100546.41;;;22.33;100.00
42591;BME280;28218;53.342;-6.216;2023-08-12T11:53:25;100548.66;;;22.41;100.00
42591;BME280;28218;53.342;-6.216;2023-08-12T11:55:54;100547.31;;;22.44;100.00
42591;BME280;28218;53.342;-6.216;2023-08-12T11:58:23;100545.47;;;22.44;100.00
42591;BME280;28218;53.342;-6.216;2023-08-12T12:01:00;100543.50;;;22.35;100.00
42591;BME280;28218;53.342;-6.216;2023-08-12T12:03:29;100532.59;;;22.47;100.00
42591;BME280;28218;53.342;-6.216;2023-08-12T12:05:58;100540.78;;;22.57;100.00
42591;BME280;28218;53.342;-6.216;2023-08-12T12:08:26;100537.03;;;22.85;100.00
42591;BME280;28218;53.342;-6.216;2023-08-12T12:10:54;100545.78;;;22.97;100.00
42591;BME280;28218;53.342;-6.216;2023-08-12T12:13:23;100542.09;;;23.03;100.00
42591;BME280;28218;53.342;-6.216;2023-08-12T12:15:52;100553.44;;;23.10;100.00
42591;BME280;28218;53.342;-6.216;2023-08-12T12:18:25;100543.75;;;23.09;100.00
42591;BME280;28218;53.342;-6.216;2023-08-12T12:20:54;100542.63;;;23.05;100.00
42591;BME280;28218;53.342;-6.216;2023-08-12T12:23:27;100546.56;;;22.92;100.00
42591;BME280;28218;53.342;-6.216;2023-08-12T12:25:59;100555.84;;;22.85;100.00
42591;BME280;28218;53.342;-6.216;2023-08-12T12:28:28;100564.81;;;22.68;100.00
42591;BME280;28218;53.342;-6.216;2023-08-12T12:30:58;100563.38;;;22.61;100.00
42591;BME280;28218;53.342;-6.216;2023-08-12T12:33:28;100560.94;;;22.59;100.00
42591;BME280;28218;53.342;-6.216;2023-08-12T12:35:56;100568.44;;;22.57;100.00
42591;BME280;28218;53.342;-6.216;2023-08-12T12:38:27;100588.03;;;22.58;100.00
42591;BME280;28218;53.342;-6.216;2023-08-12T12:40:56;100576.69;;;22.51;100.00
42591;BME280;28218;53.342;-6.216;2023-08-12T12:43:24;100570.03;;;22.58;100.00